Silver Peak Trail, Santa Catalina Island Weather observations

Data are for 10 minute period ending at time listed.
 Day   Time   Solar   Ave.   Ave.  Ave.  Vector    Max.   Stn.    Total
  of    of     Rad.   Air    Rel.  Wind   Wind     Wind   Baro.  Precip.
Year   Day            Temp.  Hum.  Speed  Dir.     Gust   Pres.         
2015   (PST)   W/m2    F      %     mph   deg.      mph    mb.     in.  
------------------------------------------------------------------------
 141    9:30  192.0    56   80.5     2    228.9     6.0    999.0   0.00  
 141    9:40  245.0    56   80.5     3     34.9     8.4    999.0   0.00  
 141    9:50  272.0    55   82.2     4     24.9     8.4    999.0   0.00  
 141   10:00  221.0    55   82.6     5     24.8     8.4    999.0   0.00  
 141   10:10  254.0    54   83.5     6     37.0     8.4    999.0   0.00  
 141   10:20  206.0    54   82.9     6     28.2    12.5    999.0   0.00  
 141   10:30  146.0    55   81.4     3      9.5     7.8    999.0   0.00  
 141   10:40  165.0    55   82.5     2     60.4     4.8    999.0   0.00  
 141   10:50  162.0    56   81.9     2    161.8     3.6    999.0   0.00  
 141   11:00  200.0    56   81.3     2    163.5     4.2    999.0   0.00  
 141   11:10  193.0    57   80.5     2    142.2     3.6    999.0   0.00  
 141   11:20  218.0    56   80.6     2    358.1     3.6    999.0   0.00  
 141   11:30  243.0    56   81.1     2    154.5     3.6    999.0   0.00  
 141   11:40  187.0    56   81.8     4    286.0     7.2    999.0   0.00  
 141   11:50  214.0    56   81.3     3    179.3     4.8    999.0   0.00  
 141   12:00  276.0    57   81.0     3    276.0     5.4    999.0   0.00  
 141   12:10  270.0    57   81.2     3     38.8     7.8    999.0   0.00  
 141   12:20  473.0    57   82.0     3    299.7     6.0    999.0   0.00  
 141   12:30  532.0    60   77.3     3    235.1     7.2    999.0   0.00  
 141   12:40  876.0    62   73.8     4    274.7     7.2    999.0   0.00  
 141   12:50  1093.0    63   69.7     6    272.1    11.3    999.0   0.00  
 141   13:00  966.0    63   69.0     6    251.0    11.9    999.0   0.00  
 141   13:10  1094.0    63   69.3     5    283.8    11.9    999.0   0.00  
 141   13:20  711.0    63   70.7     6    261.9    11.9    999.0   0.00  
 141   13:30  241.0    59   77.8     5    232.2    11.9    999.0   0.00  
 141   13:40  128.0    57   81.6     7    235.3    11.3    999.0   0.00  
 141   13:50  212.0    55   86.8     8    244.0    15.5    999.0   0.00  
 141   14:00  619.0    58   81.6     7    233.0    14.3    999.0   0.00  
 141   14:10  867.0    60   76.5     6    240.0    14.9    999.0   0.00  
 141   14:20  850.0    62   73.2     7    235.8    13.1    999.0   0.00  
 141   14:30  814.0    61   74.1     8    242.2    14.9    999.0   0.00  
 141   14:40  799.0    61   74.5     6    235.0    14.9    999.0   0.00  
 141   14:50  770.0    62   71.3     7    238.0    13.7    999.0   0.00  
 141   15:00  746.0    62   71.6     7    228.5    14.9    999.0   0.00  
 141   15:10  715.0    61   74.3     8    235.3    15.5    999.0   0.00  
 141   15:20  684.0    61   73.3     8    233.6    14.9    999.0   0.00  
 141   15:30  657.0    60   74.7     8    232.7    16.1    999.0   0.00  
 141   15:40  549.0    59   76.7     9    231.7    17.3    999.0   0.00  
 141   15:50  527.0    59   76.6    11    236.7    17.9    999.0   0.00  
 141   16:00  483.0    58   79.1    10    233.4    17.3    999.0   0.00  
 141   16:10  470.0    58   78.9    10    226.9    17.9    999.0   0.00  
 141   16:20  480.0    58   79.7    12    225.9    22.7    999.0   0.00  
 141   16:30  431.0    58   79.0    13    223.4    22.1    999.0   0.00  
 141   16:40  383.0    57   80.5    13    222.4    23.9    999.0   0.00  
 141   16:50  289.0    56   82.2    14    234.0    22.1    999.0   0.00  
 141   17:00  180.0    55   83.4    15    227.3    23.3    999.0   0.00  
 141   17:10  115.0    54   86.6    12    230.5    19.1    999.0   0.00  
 141   17:20  132.0    54   88.8    13    226.1    20.3    999.0   0.00  
 141   17:30  115.0    54   89.6    11    232.6    20.3    999.0   0.00  
 141   17:40   83.0    53   89.5    13    231.4    20.9    999.0   0.00  
 141   17:50   79.0    53   90.5    12    233.8    22.1    999.0   0.00  
 141   18:00  108.0    53   90.3    10    239.7    16.1    999.0   0.00  
 141   18:10   51.0    53   90.3    11    239.0    20.9    999.0   0.00  
 141   18:20   43.0    52   91.1    12    233.1    26.2    999.0   0.00  
 141   18:30   35.0    52   91.2    12    234.4    23.3    999.0   0.00  
 141   18:40   24.0    52   91.1    10    246.2    22.1    999.0   0.00  
 141   18:50   13.0    52   91.3    10    245.6    22.7    999.0   0.00  
 141   19:00    4.0    52   91.8    10    241.0    20.3    999.0   0.00  
 141   19:10    1.0    52   92.4     8    236.7    17.9    999.0   0.00  
 141   19:20    0.0    52   92.7     9    241.5    19.1    999.0   0.00  
 141   19:30    0.0    52   92.9    11    233.9    25.0    999.0   0.00  
 141   19:40    0.0    52   93.1    10    237.2    19.1    999.0   0.00  
 141   19:50    0.0    52   93.3     8    238.4    16.7    999.0   0.00  
 141   20:00    0.0    52   93.4    10    240.4    19.1    999.0   0.00  
 141   20:10    0.0    51   93.3    11    235.3    21.5    999.0   0.00  
 141   20:20    0.0    51   92.9    10    242.0    18.5    999.0   0.00  
 141   20:30    0.0    52   92.8    11    238.3    17.9    999.0   0.00  
 141   20:40    0.0    51   92.7    12    236.2    20.9    999.0   0.00  
 141   20:50    0.0    52   92.5    10    240.9    18.5    999.0   0.00  
 141   21:00    0.0    51   92.7    12    237.3    21.5    999.0   0.00  
 141   21:10    0.0    51   92.8     9    241.8    20.9    999.0   0.00  
 141   21:20    0.0    51   92.6    14    232.6    23.3    999.0   0.00  
 141   21:30    0.0    52   92.7    11    242.2    20.3    999.0   0.00  
 141   21:40    0.0    51   92.9    13    236.3    21.5    999.0   0.00  
 141   21:50    0.0    51   93.0    10    245.6    19.7    999.0   0.00  
 141   22:00    0.0    51   93.1    11    251.8    21.5    999.0   0.00  
 141   22:10    0.0    51   93.0    10    247.5    20.9    999.0   0.00  
 141   22:20    0.0    51   93.2     9    244.7    19.1    999.0   0.00  
 141   22:30    0.0    51   93.4    10    251.2    18.5    999.0   0.00  
 141   22:40    0.0    51   93.1     9    252.1    16.1    999.0   0.00  
 141   22:50    0.0    51   93.2     9    244.9    18.5    999.0   0.00  
 141   23:00    0.0    51   93.4     8    246.3    19.1    999.0   0.00  
 141   23:10    0.0    51   93.8     9    239.8    19.1    999.0   0.00  
 141   23:20    0.0    51   93.9     9    242.1    19.1    999.0   0.00  
 141   23:30    0.0    51   94.1     9    237.5    17.3    999.0   0.00  
 141   23:40    0.0    51   94.3    10    237.4    17.3    999.0   0.00  
 141   23:50    0.0    51   94.2     9    249.4    14.9    999.0   0.00  
 142    0:00    0.0    51   94.2    10    244.0    15.5    999.0   0.00  
 142    0:10    0.0    51   94.1     9    246.8    15.5    999.0   0.00  
 142    0:20    0.0    51   94.0     9    240.6    17.9    999.0   0.00  
 142    0:30    0.0    51   93.7    11    243.0    18.5    999.0   0.00  
 142    0:40    0.0    51   93.6     9    234.0    17.9    999.0   0.00  
 142    0:50    0.0    51   93.7    10    231.1    19.7    999.0   0.00  
 142    1:00    0.0    51   94.0    10    237.9    20.3    999.0   0.00  
 142    1:10    0.0    51   94.2    10    233.3    20.3    999.0   0.00  
 142    1:20    0.0    51   94.4    10    234.4    18.5    999.0   0.00  
 142    1:30    0.0    51   94.4    11    229.4    18.5    999.0   0.00  
 142    1:40    0.0    51   94.5    11    235.7    20.3    999.0   0.00  
 142    1:50    0.0    51   94.7    12    236.5    22.7    999.0   0.00  
 142    2:00    0.0    51   94.8    12    235.9    19.7    999.0   0.00  
 142    2:10    0.0    50   94.9    12    237.6    21.5    999.0   0.00  
 142    2:20    0.0    50   94.9    12    237.9    20.9    999.0   0.00  
 142    2:30    0.0    50   94.8    11    234.0    22.7    999.0   0.00  
 142    2:40    0.0    50   94.7    11    235.8    20.9    999.0   0.00  
 142    2:50    0.0    50   94.7    11    235.9    18.5    999.0   0.00  
 142    3:00    0.0    50   94.8    11    231.3    17.3    999.0   0.00  
 142    3:10    0.0    50   94.8    10    238.9    16.7    999.0   0.00  
 142    3:20    0.0    50   94.8     9    236.8    19.7    999.0   0.00  
 142    3:30    0.0    50   94.7     8    241.4    16.7    999.0   0.00  
 142    3:40    0.0    50   94.6     8    233.9    16.7    999.0   0.00  
 142    3:50    0.0    50   94.6     7    242.9    16.1    999.0   0.00  
 142    4:00    0.0    50   94.6    10    248.5    15.5    999.0   0.00  
 142    4:10    0.0    50   94.7    10    244.9    16.7    999.0   0.00  
 142    4:20    0.0    50   94.7     9    235.2    16.1    999.0   0.00  
 142    4:30    0.0    50   94.7     9    237.9    17.9    999.0   0.00  
 142    4:40    0.0    50   94.7    10    241.5    19.1    999.0   0.00  
 142    4:50    1.0    50   94.7     9    246.0    17.9    999.0   0.00  
 142    5:00    3.0    50   94.6     9    234.8    17.3    999.0   0.00  
 142    5:10    7.0    50   94.6    10    236.3    17.9    999.0   0.00  
 142    5:20   23.0    50   94.5     8    245.7    19.1    999.0   0.00  
 142    5:30   86.0    50   94.2    10    235.5    15.5    999.0   0.00  
 142    5:40  135.0    51   93.7     8    233.2    15.5    999.0   0.00  
 142    5:50  167.0    52   92.7     9    240.2    16.1    999.0   0.00  
 142    6:00  206.0    52   92.2     7    234.0    13.7    999.0   0.00  
 142    6:10  163.0    52   91.8     7    234.4    16.7    999.0   0.00  
 142    6:20  221.0    52   91.3     7    236.6    13.7    999.0   0.00  
 142    6:30  243.0    53   90.6     8    232.3    16.7    999.0   0.00  
 142    6:40  227.0    52   90.7     8    237.9    14.9    999.0   0.00  
 142    6:50  286.0    53   90.6     8    229.6    14.9    999.0   0.00  
 142    7:00  243.0    53   90.3     7    238.8    13.1    999.0   0.00  
 142    7:10  190.0    54   89.8     5    238.2    12.5    999.0   0.00  
 142    7:20  202.0    53   90.2     6    215.3    13.7    999.0   0.00  
 142    7:30  144.0    53   90.4     7    232.6    14.3    999.0   0.00  
 142    7:40  194.0    53   90.3     6    237.8    12.5    999.0   0.00  
 142    7:50  235.0    54   89.6     6    236.7    12.5    999.0   0.00  
 142    8:00  253.0    53   89.3     7    244.9    13.1    999.0   0.00  
 142    8:10  180.0    54   88.7     5    249.6    11.3    999.0   0.00  
 142    8:20  272.0    54   89.2     7    238.9    14.3    999.0   0.00  
 142    8:30  362.0    55   87.8     7    227.8    14.9    999.0   0.00  
 142    8:40  363.0    56   85.6     7    240.4    13.7    999.0   0.00  
 142    8:50  412.0    56   85.8     5    240.4    11.3    999.0   0.00  
 142    9:00  290.0    55   85.8     6    224.8    13.1    999.0   0.00  
 142    9:10  322.0    55   86.2     5    240.7    12.5    999.0   0.00  
 142    9:20  328.0    55   86.0     6    241.8    12.5    999.0   0.00  

Return to Silver Peak Trail graphs page.


Western Regional Climate Center,wrcc@dri.edu